• Join FlightAware (Why Join?)
  • Login
  • US Flag 
03:53AM EST


 

Airport Tracker/Info


-or-


 

Live Flight TrackerFlight Track Log ✈ VH-AFQ ✈ 14-Aug-2013 ✈ YPJT / JAD - YNTM

Flight Track Log - Related Links

Times and Time Zones

All times are in EDT time to prevent confusion due to time zone crossing. See the VH-AFQ flight status page for this flight to view local times or setup timezone preferences in your user account.

Time Position Orientation Groundspeed Altitude Reporting Facility
EDT Latitude Longitude Course Direction KTS MPH feet Rate Location/Type
11:35PM -32.1561 116.0918 83° East 107 123 2,800  Level Aus ATC (RADAR)
11:36PM -32.1526 116.1258 83° East 121 139 2,600 -240 Descending Aus ATC (RADAR)
11:37PM -32.1508 116.1506 85° East 112 129 2,500  Descending Aus ATC (RADAR)
11:38PM -32.1350 116.1668 41° Northeast 96 110 2,600 60 Climbing Aus ATC (RADAR)
11:39PM -32.0909 116.1870 21° North 103 119 2,700  Climbing Aus ATC (RADAR)
11:40PM -32.0647 116.2003 23° Northeast 104 120 2,600  Descending Aus ATC (RADAR)
11:41PM -32.0458 116.2126 29° Northeast 103 119 2,700 60 Climbing Aus ATC (RADAR)
11:42PM -32.0287 116.2216 24° Northeast 100 115 2,700  Level Aus ATC (RADAR)
11:43PM -32.0041 116.2324 20° North 104 120 2,700 -60 Level Aus ATC (RADAR)
11:44PM -31.9631 116.2646 34° Northeast 104 120 2,600 -60 Descending Aus ATC (RADAR)
11:45PM -31.9437 116.2796 33° Northeast 98 113 2,600  Level Aus ATC (RADAR)
11:46PM -31.9195 116.2958 30° Northeast 98 113 2,600  Level Aus ATC (RADAR)
11:48PM -31.8891 116.3284 42° Northeast 107 123 2,600  Level Aus ATC (RADAR)
11:49PM -31.8549 116.3686 45° Northeast 105 121 2,700  Climbing Aus ATC (RADAR)
11:50PM -31.8344 116.3920 44° Northeast 103 119 2,700 -60 Level Aus ATC (RADAR)
11:51PM -31.8177 116.4110 44° Northeast 102 117 2,600 -120 Descending Aus ATC (RADAR)
11:52PM -31.8041 116.4257 43° Northeast 100 115 2,600 60 Level Aus ATC (RADAR)
11:53PM -31.7835 116.4482 43° Northeast 100 115 2,700  Climbing Aus ATC (RADAR)
11:55PM -31.7424 116.4892 40° Northeast 101 116 2,700 -60 Level Aus ATC (RADAR)
11:56PM -31.7226 116.5093 41° Northeast 103 119 2,600 -60 Descending Aus ATC (RADAR)
11:57PM -31.7056 116.5284 44° Northeast 99 114 2,600  Level Aus ATC (RADAR)
11:57PM -31.6928 116.5435 45° Northeast 97 112 2,600  Level Aus ATC (RADAR)
11:58PM -31.6790 116.5628 50° Northeast 103 119 2,600  Level Aus ATC (RADAR)
12:00AM -31.6622 116.6214 71° East 100 115 2,600  Level Aus ATC (RADAR)
12:01AM -31.6514 116.6492 65° Northeast 97 112 2,700 -240 Climbing Aus ATC (RADAR)
12:01AM -31.6407 116.6676 56° Northeast 102 117 2,300 -420 Descending Aus ATC (RADAR)
12:02AM -31.6282 116.6858 51° Northeast 104 120 2,200 -180 Descending Aus ATC (RADAR)
12:03AM -31.6340 116.6982 119° Southeast 113 130 2,100 -120 Descending Aus ATC (RADAR)